sensor_id;sensor_type;location;lat;lon;timestamp;temperature;humidity
28725;DHT22;43472;48.980;9.646;2023-12-14T00:04:32;8.80;99.90
28725;DHT22;43472;48.980;9.646;2023-12-14T00:09:34;8.60;99.90
28725;DHT22;43472;48.980;9.646;2023-12-14T00:14:36;8.60;99.90
28725;DHT22;43472;48.980;9.646;2023-12-14T00:19:38;8.80;99.90
28725;DHT22;43472;48.980;9.646;2023-12-14T00:24:39;8.70;99.90
28725;DHT22;43472;48.980;9.646;2023-12-14T00:29:41;8.80;99.90
28725;DHT22;43472;48.980;9.646;2023-12-14T00:34:43;8.70;99.90
28725;DHT22;43472;48.980;9.646;2023-12-14T00:39:44;8.70;99.90
28725;DHT22;43472;48.980;9.646;2023-12-14T00:44:46;8.70;99.90
28725;DHT22;43472;48.980;9.646;2023-12-14T00:49:48;8.70;99.90
28725;DHT22;43472;48.980;9.646;2023-12-14T00:54:50;8.70;99.90
28725;DHT22;43472;48.980;9.646;2023-12-14T00:59:51;8.70;99.90
28725;DHT22;43472;48.980;9.646;2023-12-14T01:04:53;8.70;99.90
28725;DHT22;43472;48.980;9.646;2023-12-14T01:09:55;8.70;99.90
28725;DHT22;43472;48.980;9.646;2023-12-14T01:14:57;8.70;99.90
28725;DHT22;43472;48.980;9.646;2023-12-14T01:19:59;8.80;99.90
28725;DHT22;43472;48.980;9.646;2023-12-14T01:25:00;8.70;99.90
28725;DHT22;43472;48.980;9.646;2023-12-14T01:30:02;8.70;99.90
28725;DHT22;43472;48.980;9.646;2023-12-14T01:35:05;8.70;99.90
28725;DHT22;43472;48.980;9.646;2023-12-14T01:40:07;8.80;99.90
28725;DHT22;43472;48.980;9.646;2023-12-14T01:45:09;8.70;99.90
28725;DHT22;43472;48.980;9.646;2023-12-14T01:50:11;8.70;99.90
28725;DHT22;43472;48.980;9.646;2023-12-14T01:55:13;8.70;99.90
28725;DHT22;43472;48.980;9.646;2023-12-14T02:00:34;8.80;99.90
28725;DHT22;43472;48.980;9.646;2023-12-14T02:05:37;8.70;99.90
28725;DHT22;43472;48.980;9.646;2023-12-14T02:10:39;8.80;99.90
28725;DHT22;43472;48.980;9.646;2023-12-14T02:15:42;8.50;99.90
28725;DHT22;43472;48.980;9.646;2023-12-14T02:20:43;8.60;99.90
28725;DHT22;43472;48.980;9.646;2023-12-14T02:25:45;8.70;99.90
28725;DHT22;43472;48.980;9.646;2023-12-14T02:30:47;8.70;99.90
28725;DHT22;43472;48.980;9.646;2023-12-14T02:35:49;8.90;99.90
28725;DHT22;43472;48.980;9.646;2023-12-14T02:40:50;8.70;99.90
28725;DHT22;43472;48.980;9.646;2023-12-14T02:45:54;8.70;99.90
28725;DHT22;43472;48.980;9.646;2023-12-14T02:51:01;8.60;99.90
28725;DHT22;43472;48.980;9.646;2023-12-14T02:56:03;8.70;99.90
28725;DHT22;43472;48.980;9.646;2023-12-14T03:01:05;8.50;99.90
28725;DHT22;43472;48.980;9.646;2023-12-14T03:06:07;8.40;99.90
28725;DHT22;43472;48.980;9.646;2023-12-14T03:11:09;8.40;99.90
28725;DHT22;43472;48.980;9.646;2023-12-14T03:16:11;8.40;99.90
28725;DHT22;43472;48.980;9.646;2023-12-14T03:21:13;8.40;99.90
28725;DHT22;43472;48.980;9.646;2023-12-14T03:26:15;8.40;99.90
28725;DHT22;43472;48.980;9.646;2023-12-14T03:31:17;8.50;99.90
28725;DHT22;43472;48.980;9.646;2023-12-14T03:36:19;8.40;99.90
28725;DHT22;43472;48.980;9.646;2023-12-14T03:41:20;8.50;99.90
28725;DHT22;43472;48.980;9.646;2023-12-14T03:46:22;9.20;99.90
28725;DHT22;43472;48.980;9.646;2023-12-14T03:51:24;8.70;99.90
28725;DHT22;43472;48.980;9.646;2023-12-14T03:56:25;8.70;99.90
28725;DHT22;43472;48.980;9.646;2023-12-14T04:01:27;8.70;99.90
28725;DHT22;43472;48.980;9.646;2023-12-14T04:06:29;8.70;99.90
28725;DHT22;43472;48.980;9.646;2023-12-14T04:11:31;8.80;99.90
28725;DHT22;43472;48.980;9.646;2023-12-14T04:16:32;8.80;99.90
28725;DHT22;43472;48.980;9.646;2023-12-14T04:21:34;8.60;99.90
28725;DHT22;43472;48.980;9.646;2023-12-14T04:26:36;8.70;99.90
28725;DHT22;43472;48.980;9.646;2023-12-14T04:31:38;8.80;99.90
28725;DHT22;43472;48.980;9.646;2023-12-14T04:36:40;8.80;99.90
28725;DHT22;43472;48.980;9.646;2023-12-14T04:41:42;8.80;99.90
28725;DHT22;43472;48.980;9.646;2023-12-14T04:46:44;8.80;99.90
28725;DHT22;43472;48.980;9.646;2023-12-14T04:51:45;8.80;99.90
28725;DHT22;43472;48.980;9.646;2023-12-14T04:56:47;8.80;99.90
28725;DHT22;43472;48.980;9.646;2023-12-14T05:01:49;8.90;99.90
28725;DHT22;43472;48.980;9.646;2023-12-14T05:06:51;8.80;99.90
28725;DHT22;43472;48.980;9.646;2023-12-14T05:11:52;8.80;99.90
28725;DHT22;43472;48.980;9.646;2023-12-14T05:16:54;8.80;99.90
28725;DHT22;43472;48.980;9.646;2023-12-14T05:21:56;8.90;99.90
28725;DHT22;43472;48.980;9.646;2023-12-14T05:26:58;8.80;99.90
28725;DHT22;43472;48.980;9.646;2023-12-14T05:31:59;8.80;99.90
28725;DHT22;43472;48.980;9.646;2023-12-14T05:37:02;8.80;99.90
28725;DHT22;43472;48.980;9.646;2023-12-14T05:42:03;8.70;99.90
28725;DHT22;43472;48.980;9.646;2023-12-14T05:47:05;8.70;99.90
28725;DHT22;43472;48.980;9.646;2023-12-14T05:52:07;8.70;99.90
28725;DHT22;43472;48.980;9.646;2023-12-14T05:57:09;9.30;99.90
28725;DHT22;43472;48.980;9.646;2023-12-14T06:02:14;8.70;99.90
28725;DHT22;43472;48.980;9.646;2023-12-14T06:07:16;8.70;99.90
28725;DHT22;43472;48.980;9.646;2023-12-14T06:12:18;8.80;99.90
28725;DHT22;43472;48.980;9.646;2023-12-14T06:17:20;9.70;99.90
28725;DHT22;43472;48.980;9.646;2023-12-14T06:22:22;8.60;99.90
28725;DHT22;43472;48.980;9.646;2023-12-14T06:27:24;8.60;99.90
28725;DHT22;43472;48.980;9.646;2023-12-14T06:32:28;8.50;99.90
28725;DHT22;43472;48.980;9.646;2023-12-14T06:37:32;8.50;99.90
28725;DHT22;43472;48.980;9.646;2023-12-14T06:42:34;8.40;99.90
28725;DHT22;43472;48.980;9.646;2023-12-14T06:47:36;8.40;99.90
28725;DHT22;43472;48.980;9.646;2023-12-14T06:52:38;8.20;99.90
28725;DHT22;43472;48.980;9.646;2023-12-14T06:57:43;8.30;99.90
28725;DHT22;43472;48.980;9.646;2023-12-14T07:02:45;8.30;99.90
28725;DHT22;43472;48.980;9.646;2023-12-14T07:07:47;8.20;99.90
28725;DHT22;43472;48.980;9.646;2023-12-14T07:12:48;8.20;99.90
28725;DHT22;43472;48.980;9.646;2023-12-14T07:17:50;8.20;99.90
28725;DHT22;43472;48.980;9.646;2023-12-14T07:22:52;9.10;99.90
28725;DHT22;43472;48.980;9.646;2023-12-14T07:27:54;8.30;99.90
28725;DHT22;43472;48.980;9.646;2023-12-14T07:32:56;8.30;99.90
28725;DHT22;43472;48.980;9.646;2023-12-14T07:37:57;8.30;99.90
28725;DHT22;43472;48.980;9.646;2023-12-14T07:42:59;8.30;99.90
28725;DHT22;43472;48.980;9.646;2023-12-14T07:48:02;8.30;99.90
28725;DHT22;43472;48.980;9.646;2023-12-14T07:53:05;8.30;99.90
28725;DHT22;43472;48.980;9.646;2023-12-14T07:58:07;8.40;99.90
28725;DHT22;43472;48.980;9.646;2023-12-14T08:03:10;8.40;99.90
28725;DHT22;43472;48.980;9.646;2023-12-14T08:08:12;8.50;99.90
28725;DHT22;43472;48.980;9.646;2023-12-14T08:13:14;9.10;99.90
28725;DHT22;43472;48.980;9.646;2023-12-14T08:18:16;8.70;99.90
28725;DHT22;43472;48.980;9.646;2023-12-14T08:23:19;8.70;99.90
28725;DHT22;43472;48.980;9.646;2023-12-14T08:28:21;8.70;99.90
28725;DHT22;43472;48.980;9.646;2023-12-14T08:33:22;8.80;99.90
28725;DHT22;43472;48.980;9.646;2023-12-14T08:38:25;8.80;99.90
28725;DHT22;43472;48.980;9.646;2023-12-14T08:43:27;8.90;99.90
28725;DHT22;43472;48.980;9.646;2023-12-14T08:48:29;8.90;99.90
28725;DHT22;43472;48.980;9.646;2023-12-14T08:53:31;9.00;99.90
28725;DHT22;43472;48.980;9.646;2023-12-14T08:58:33;9.10;99.90
28725;DHT22;43472;48.980;9.646;2023-12-14T09:03:35;8.90;99.90
28725;DHT22;43472;48.980;9.646;2023-12-14T09:08:36;9.00;99.90
28725;DHT22;43472;48.980;9.646;2023-12-14T09:13:38;9.10;99.90
28725;DHT22;43472;48.980;9.646;2023-12-14T09:18:40;9.10;99.90
28725;DHT22;43472;48.980;9.646;2023-12-14T09:23:42;9.20;99.90
28725;DHT22;43472;48.980;9.646;2023-12-14T09:28:44;9.30;99.90
28725;DHT22;43472;48.980;9.646;2023-12-14T09:33:46;9.20;99.90
28725;DHT22;43472;48.980;9.646;2023-12-14T09:38:47;9.20;99.90
28725;DHT22;43472;48.980;9.646;2023-12-14T09:43:49;9.50;99.90
28725;DHT22;43472;48.980;9.646;2023-12-14T09:48:52;10.70;99.90
28725;DHT22;43472;48.980;9.646;2023-12-14T09:53:55;9.70;99.90
28725;DHT22;43472;48.980;9.646;2023-12-14T09:59:01;9.70;99.90
28725;DHT22;43472;48.980;9.646;2023-12-14T10:04:11;9.50;99.90
28725;DHT22;43472;48.980;9.646;2023-12-14T10:09:14;9.70;99.90
28725;DHT22;43472;48.980;9.646;2023-12-14T10:14:24;9.80;99.90
28725;DHT22;43472;48.980;9.646;2023-12-14T10:19:27;9.70;99.90
28725;DHT22;43472;48.980;9.646;2023-12-14T10:24:33;10.80;99.90
28725;DHT22;43472;48.980;9.646;2023-12-14T10:29:39;9.70;99.90
28725;DHT22;43472;48.980;9.646;2023-12-14T10:34:41;9.80;99.90
28725;DHT22;43472;48.980;9.646;2023-12-14T10:44:49;9.90;99.90
28725;DHT22;43472;48.980;9.646;2023-12-14T10:50:12;11.40;99.90
28725;DHT22;43472;48.980;9.646;2023-12-14T11:00:25;10.10;99.90
28725;DHT22;43472;48.980;9.646;2023-12-14T11:05:28;10.00;99.90
28725;DHT22;43472;48.980;9.646;2023-12-14T11:10:42;9.80;99.90
28725;DHT22;43472;48.980;9.646;2023-12-14T11:15:48;9.80;99.90
28725;DHT22;43472;48.980;9.646;2023-12-14T11:21:00;10.10;99.90
28725;DHT22;43472;48.980;9.646;2023-12-14T11:26:05;10.10;99.90
28725;DHT22;43472;48.980;9.646;2023-12-14T11:31:10;10.10;99.90
28725;DHT22;43472;48.980;9.646;2023-12-14T11:36:12;11.00;99.90
28725;DHT22;43472;48.980;9.646;2023-12-14T11:41:15;9.80;99.90
28725;DHT22;43472;48.980;9.646;2023-12-14T11:46:18;9.30;99.90
28725;DHT22;43472;48.980;9.646;2023-12-14T11:51:19;9.30;99.90
28725;DHT22;43472;48.980;9.646;2023-12-14T11:56:21;9.60;99.90
28725;DHT22;43472;48.980;9.646;2023-12-14T12:01:25;9.50;99.90
28725;DHT22;43472;48.980;9.646;2023-12-14T12:06:29;10.00;99.90
28725;DHT22;43472;48.980;9.646;2023-12-14T12:11:32;9.80;99.90
28725;DHT22;43472;48.980;9.646;2023-12-14T12:16:34;9.80;99.90
28725;DHT22;43472;48.980;9.646;2023-12-14T12:21:36;9.90;99.90
28725;DHT22;43472;48.980;9.646;2023-12-14T12:26:38;10.30;99.90
28725;DHT22;43472;48.980;9.646;2023-12-14T12:31:39;10.30;99.90
28725;DHT22;43472;48.980;9.646;2023-12-14T12:36:41;10.30;99.90
28725;DHT22;43472;48.980;9.646;2023-12-14T12:41:43;10.00;99.90
28725;DHT22;43472;48.980;9.646;2023-12-14T12:46:45;10.30;99.90
28725;DHT22;43472;48.980;9.646;2023-12-14T12:52:02;9.70;99.90
28725;DHT22;43472;48.980;9.646;2023-12-14T12:57:04;9.80;99.90
28725;DHT22;43472;48.980;9.646;2023-12-14T13:02:06;9.80;99.90
28725;DHT22;43472;48.980;9.646;2023-12-14T13:07:08;9.60;99.90
28725;DHT22;43472;48.980;9.646;2023-12-14T13:12:09;9.40;99.90
28725;DHT22;43472;48.980;9.646;2023-12-14T13:17:11;9.60;99.90
28725;DHT22;43472;48.980;9.646;2023-12-14T13:22:13;9.60;99.90
28725;DHT22;43472;48.980;9.646;2023-12-14T13:27:15;9.70;99.90
28725;DHT22;43472;48.980;9.646;2023-12-14T13:32:17;9.60;99.90
28725;DHT22;43472;48.980;9.646;2023-12-14T13:37:19;9.70;99.90
28725;DHT22;43472;48.980;9.646;2023-12-14T13:42:21;10.10;99.90
28725;DHT22;43472;48.980;9.646;2023-12-14T13:47:23;10.30;99.90
28725;DHT22;43472;48.980;9.646;2023-12-14T13:52:25;9.50;99.90
28725;DHT22;43472;48.980;9.646;2023-12-14T13:57:31;9.50;99.90
28725;DHT22;43472;48.980;9.646;2023-12-14T14:02:33;9.20;99.90
28725;DHT22;43472;48.980;9.646;2023-12-14T14:07:35;9.30;99.90
28725;DHT22;43472;48.980;9.646;2023-12-14T14:12:37;10.30;99.90
28725;DHT22;43472;48.980;9.646;2023-12-14T14:17:40;9.10;99.90
28725;DHT22;43472;48.980;9.646;2023-12-14T14:22:41;9.00;99.90
28725;DHT22;43472;48.980;9.646;2023-12-14T14:27:43;9.10;99.90
28725;DHT22;43472;48.980;9.646;2023-12-14T14:32:48;9.20;99.90
28725;DHT22;43472;48.980;9.646;2023-12-14T14:37:50;9.30;99.90
28725;DHT22;43472;48.980;9.646;2023-12-14T14:42:52;9.20;99.90
28725;DHT22;43472;48.980;9.646;2023-12-14T14:47:53;11.20;99.90
28725;DHT22;43472;48.980;9.646;2023-12-14T14:52:55;9.20;99.90
28725;DHT22;43472;48.980;9.646;2023-12-14T14:57:57;9.30;99.90
28725;DHT22;43472;48.980;9.646;2023-12-14T15:02:59;9.50;99.90
28725;DHT22;43472;48.980;9.646;2023-12-14T15:08:07;9.20;99.90
28725;DHT22;43472;48.980;9.646;2023-12-14T15:13:09;9.20;99.90
28725;DHT22;43472;48.980;9.646;2023-12-14T15:18:11;9.30;99.90
28725;DHT22;43472;48.980;9.646;2023-12-14T15:23:12;9.20;99.90
28725;DHT22;43472;48.980;9.646;2023-12-14T15:28:15;9.20;99.90
28725;DHT22;43472;48.980;9.646;2023-12-14T15:33:16;9.20;99.90
28725;DHT22;43472;48.980;9.646;2023-12-14T15:38:18;9.10;99.90
28725;DHT22;43472;48.980;9.646;2023-12-14T15:43:20;9.20;99.90
28725;DHT22;43472;48.980;9.646;2023-12-14T15:48:23;9.20;99.90
28725;DHT22;43472;48.980;9.646;2023-12-14T15:53:25;10.10;99.90
28725;DHT22;43472;48.980;9.646;2023-12-14T15:58:28;9.10;99.90
28725;DHT22;43472;48.980;9.646;2023-12-14T16:03:30;9.10;99.90
28725;DHT22;43472;48.980;9.646;2023-12-14T16:08:32;9.10;99.90
28725;DHT22;43472;48.980;9.646;2023-12-14T16:13:34;9.10;99.90
28725;DHT22;43472;48.980;9.646;2023-12-14T16:18:36;9.20;99.90
28725;DHT22;43472;48.980;9.646;2023-12-14T16:23:38;9.10;99.90
28725;DHT22;43472;48.980;9.646;2023-12-14T16:28:40;9.10;99.90
28725;DHT22;43472;48.980;9.646;2023-12-14T16:33:42;9.10;99.90
28725;DHT22;43472;48.980;9.646;2023-12-14T16:38:44;9.10;99.90
28725;DHT22;43472;48.980;9.646;2023-12-14T16:43:48;9.50;99.90
28725;DHT22;43472;48.980;9.646;2023-12-14T16:48:50;9.10;99.90
28725;DHT22;43472;48.980;9.646;2023-12-14T16:53:52;9.00;99.90
28725;DHT22;43472;48.980;9.646;2023-12-14T16:58:55;9.00;99.90
28725;DHT22;43472;48.980;9.646;2023-12-14T17:03:56;9.00;99.90
28725;DHT22;43472;48.980;9.646;2023-12-14T17:08:58;9.00;99.90
28725;DHT22;43472;48.980;9.646;2023-12-14T17:14:00;9.00;99.90
28725;DHT22;43472;48.980;9.646;2023-12-14T17:19:02;8.90;99.90
28725;DHT22;43472;48.980;9.646;2023-12-14T17:24:06;8.90;99.90
28725;DHT22;43472;48.980;9.646;2023-12-14T17:29:10;8.60;99.90
28725;DHT22;43472;48.980;9.646;2023-12-14T17:34:12;10.20;99.90
28725;DHT22;43472;48.980;9.646;2023-12-14T17:39:14;8.80;99.90
28725;DHT22;43472;48.980;9.646;2023-12-14T17:44:16;8.70;99.90
28725;DHT22;43472;48.980;9.646;2023-12-14T17:49:17;8.70;99.90
28725;DHT22;43472;48.980;9.646;2023-12-14T17:54:19;8.60;99.90
28725;DHT22;43472;48.980;9.646;2023-12-14T17:59:21;8.70;99.90
28725;DHT22;43472;48.980;9.646;2023-12-14T18:04:23;8.70;99.90
28725;DHT22;43472;48.980;9.646;2023-12-14T18:09:25;8.70;99.90
28725;DHT22;43472;48.980;9.646;2023-12-14T18:14:27;8.70;99.90
28725;DHT22;43472;48.980;9.646;2023-12-14T18:19:29;9.00;99.90
28725;DHT22;43472;48.980;9.646;2023-12-14T18:24:32;8.80;99.90
28725;DHT22;43472;48.980;9.646;2023-12-14T18:29:33;8.90;99.90
28725;DHT22;43472;48.980;9.646;2023-12-14T18:34:35;8.70;99.90
28725;DHT22;43472;48.980;9.646;2023-12-14T18:39:40;8.80;99.90
28725;DHT22;43472;48.980;9.646;2023-12-14T18:44:41;8.70;99.90
28725;DHT22;43472;48.980;9.646;2023-12-14T18:49:43;8.70;99.90
28725;DHT22;43472;48.980;9.646;2023-12-14T18:54:46;9.90;99.90
28725;DHT22;43472;48.980;9.646;2023-12-14T18:59:48;8.70;99.90
28725;DHT22;43472;48.980;9.646;2023-12-14T19:04:49;8.60;99.90
28725;DHT22;43472;48.980;9.646;2023-12-14T19:09:51;8.70;99.90
28725;DHT22;43472;48.980;9.646;2023-12-14T19:14:55;8.70;99.90
28725;DHT22;43472;48.980;9.646;2023-12-14T19:19:57;8.60;99.90
28725;DHT22;43472;48.980;9.646;2023-12-14T19:25:00;8.60;99.90
28725;DHT22;43472;48.980;9.646;2023-12-14T19:30:07;8.60;99.90
28725;DHT22;43472;48.980;9.646;2023-12-14T19:35:09;8.60;99.90
28725;DHT22;43472;48.980;9.646;2023-12-14T19:40:11;8.50;99.90
28725;DHT22;43472;48.980;9.646;2023-12-14T19:45:13;8.60;99.90
28725;DHT22;43472;48.980;9.646;2023-12-14T19:50:15;8.60;99.90
28725;DHT22;43472;48.980;9.646;2023-12-14T19:55:17;9.70;99.90
28725;DHT22;43472;48.980;9.646;2023-12-14T20:00:19;8.50;99.90
28725;DHT22;43472;48.980;9.646;2023-12-14T20:05:21;8.40;99.90
28725;DHT22;43472;48.980;9.646;2023-12-14T20:10:23;8.50;99.90
28725;DHT22;43472;48.980;9.646;2023-12-14T20:15:24;8.40;99.90
28725;DHT22;43472;48.980;9.646;2023-12-14T20:20:29;8.40;99.90
28725;DHT22;43472;48.980;9.646;2023-12-14T20:25:31;8.40;99.90
28725;DHT22;43472;48.980;9.646;2023-12-14T20:30:35;8.40;99.90
28725;DHT22;43472;48.980;9.646;2023-12-14T20:35:38;8.40;99.90
28725;DHT22;43472;48.980;9.646;2023-12-14T20:40:39;9.00;99.90
28725;DHT22;43472;48.980;9.646;2023-12-14T20:45:41;8.70;99.90
28725;DHT22;43472;48.980;9.646;2023-12-14T20:50:43;8.40;99.90
28725;DHT22;43472;48.980;9.646;2023-12-14T20:55:45;8.30;99.90
28725;DHT22;43472;48.980;9.646;2023-12-14T21:00:47;8.20;99.90
28725;DHT22;43472;48.980;9.646;2023-12-14T21:05:48;8.10;99.90
28725;DHT22;43472;48.980;9.646;2023-12-14T21:10:51;8.00;99.90
28725;DHT22;43472;48.980;9.646;2023-12-14T21:15:53;8.00;99.90
28725;DHT22;43472;48.980;9.646;2023-12-14T21:20:54;8.00;99.90
28725;DHT22;43472;48.980;9.646;2023-12-14T21:25:56;8.10;99.90
28725;DHT22;43472;48.980;9.646;2023-12-14T21:31:13;8.60;99.90
28725;DHT22;43472;48.980;9.646;2023-12-14T21:36:16;8.00;99.90
28725;DHT22;43472;48.980;9.646;2023-12-14T21:41:17;8.00;99.90
28725;DHT22;43472;48.980;9.646;2023-12-14T21:46:19;7.90;99.90
28725;DHT22;43472;48.980;9.646;2023-12-14T21:51:21;8.00;99.90
28725;DHT22;43472;48.980;9.646;2023-12-14T21:56:23;8.00;99.90
28725;DHT22;43472;48.980;9.646;2023-12-14T22:01:24;8.00;99.90
28725;DHT22;43472;48.980;9.646;2023-12-14T22:06:26;7.70;99.90
28725;DHT22;43472;48.980;9.646;2023-12-14T22:11:28;7.70;99.90
28725;DHT22;43472;48.980;9.646;2023-12-14T22:16:30;7.70;99.90
28725;DHT22;43472;48.980;9.646;2023-12-14T22:21:34;7.80;99.90
28725;DHT22;43472;48.980;9.646;2023-12-14T22:26:36;7.80;99.90
28725;DHT22;43472;48.980;9.646;2023-12-14T22:31:38;7.70;99.90
28725;DHT22;43472;48.980;9.646;2023-12-14T22:36:39;7.80;99.90
28725;DHT22;43472;48.980;9.646;2023-12-14T22:41:41;7.80;99.90
28725;DHT22;43472;48.980;9.646;2023-12-14T22:46:43;7.80;99.90
28725;DHT22;43472;48.980;9.646;2023-12-14T22:51:45;7.50;99.90
28725;DHT22;43472;48.980;9.646;2023-12-14T22:56:47;7.50;99.90
28725;DHT22;43472;48.980;9.646;2023-12-14T23:01:48;7.50;99.90
28725;DHT22;43472;48.980;9.646;2023-12-14T23:06:51;7.40;99.90
28725;DHT22;43472;48.980;9.646;2023-12-14T23:11:53;7.40;99.90
28725;DHT22;43472;48.980;9.646;2023-12-14T23:16:55;7.40;99.90
28725;DHT22;43472;48.980;9.646;2023-12-14T23:21:57;7.20;99.90
28725;DHT22;43472;48.980;9.646;2023-12-14T23:27:01;7.40;99.90
28725;DHT22;43472;48.980;9.646;2023-12-14T23:32:03;7.20;99.90
28725;DHT22;43472;48.980;9.646;2023-12-14T23:37:05;7.30;99.90
28725;DHT22;43472;48.980;9.646;2023-12-14T23:42:07;7.30;99.90
28725;DHT22;43472;48.980;9.646;2023-12-14T23:47:08;7.30;99.90
28725;DHT22;43472;48.980;9.646;2023-12-14T23:52:10;7.20;99.90
28725;DHT22;43472;48.980;9.646;2023-12-14T23:57:12;7.20;99.90
